Belvue, Kansas
Current Conditions -  °F | °C
As of 7:52 PM on Sunday 21 Dec 2014 (Local Time) from KMHK Reporting Station
Haze Haze  
Wind Chill: 37°   Ceiling: 900
Heat Index: 44°   Visibility: 6mi
Dew Point: 42°   Wind: 16mph
Humidity: 93%   Direction: 170°S
Pressure: 29.69"   Gusts: NA
Location:  39.22°N, 96.18°W
Report Text: KMHK 220152Z 17014KT 6SM BR OVC009 07/06 A2969 RMK AO2 SLP060 T00670056
Loading
Personal Weather Stations






























Interactive Weather Map New forecast layout! Learn more

10-Day Weather Forecast

Advertisements
Track Severe Weather on mobile